Time;durP1;ratioP1;P1;durP2;ratioP2;P2;SDS_P1;SDS_P2;PMS_P1;PMS_P2;Temp;Humidity;BMP_temperature;BMP_pressure;BME280_temperature;BME280_humidity;BME280_pressure;Samples;Min_cycle;Max_cycle;Signal;HPM_P1;HPM_P2
2021/11/30 00:02:41;;;;;;;8.82;6.50;;;;;;;0.69;100.00;97655.38;10477512;28;20747;-59
2021/11/30 00:07:51;;;;;;;8.35;6.28;;;;;;;0.68;100.00;97636.91;10474725;28;20049;-61
2021/11/30 00:12:54;;;;;;;10.88;7.60;;;;;;;0.66;100.00;97637.03;10475464;28;20114;-59
2021/11/30 00:17:57;;;;;;;12.00;7.57;;;;;;;0.66;100.00;97647.66;10478282;28;20128;-60
2021/11/30 00:23:02;;;;;;;11.93;7.72;;;;;;;0.65;100.00;97647.78;10475651;28;20152;-62
2021/11/30 00:28:05;;;;;;;11.65;7.47;;;;;;;0.60;100.00;97643.66;10478932;28;20471;-60
2021/11/30 00:33:10;;;;;;;12.15;7.45;;;;;;;0.58;100.00;97645.56;10481035;28;20138;-62
2021/11/30 00:38:16;;;;;;;10.30;7.07;;;;;;;0.56;100.00;97647.50;10483196;28;20077;-60
2021/11/30 00:43:21;;;;;;;9.23;7.03;;;;;;;0.44;100.00;97632.53;10486485;28;20121;-59
2021/11/30 00:48:31;;;;;;;10.43;7.28;;;;;;;0.39;100.00;97638.19;10495118;28;20059;-62
2021/11/30 00:53:37;;;;;;;8.65;6.63;;;;;;;0.38;100.00;97630.34;10484116;28;20064;-60
2021/11/30 00:58:41;;;;;;;10.80;7.47;;;;;;;0.30;100.00;97637.06;10487133;28;20041;-56
2021/11/30 01:03:44;;;;;;;10.02;7.53;;;;;;;0.22;100.00;97620.91;10487767;28;20132;-59
2021/11/30 01:08:48;;;;;;;10.75;7.13;;;;;;;0.19;100.00;97602.59;10483460;28;20122;-61
2021/11/30 01:13:52;;;;;;;11.23;7.50;;;;;;;0.22;100.00;97596.25;10463152;28;20076;-59
2021/11/30 01:18:55;;;;;;;10.13;7.40;;;;;;;0.24;100.00;97608.41;10454447;28;20051;-60
2021/11/30 01:23:59;;;;;;;8.77;7.03;;;;;;;0.23;100.00;97612.00;10466675;28;20047;-59
2021/11/30 01:29:03;;;;;;;9.10;6.90;;;;;;;0.19;100.00;97607.91;10458121;28;20468;-61
2021/11/30 01:34:06;;;;;;;10.32;7.07;;;;;;;0.08;100.00;97606.06;10462201;28;20132;-61
2021/11/30 01:39:11;;;;;;;11.40;6.93;;;;;;;0.08;100.00;97595.47;10469914;28;20037;-59
2021/11/30 01:44:31;;;;;;;8.90;6.45;;;;;;;0.04;100.00;97583.41;10466934;28;20056;-58
2021/11/30 01:49:36;;;;;;;10.23;6.82;;;;;;;0.08;100.00;97576.94;10467743;28;20493;-61
2021/11/30 01:54:41;;;;;;;8.10;6.03;;;;;;;0.17;100.00;97569.25;10474064;28;20045;-60
2021/11/30 01:59:45;;;;;;;7.63;5.93;;;;;;;0.19;100.00;97573.47;10470574;28;20057;-63
2021/11/30 02:04:49;;;;;;;9.55;6.07;;;;;;;0.25;100.00;97561.56;10468576;28;20268;-63
2021/11/30 02:09:54;;;;;;;8.25;6.13;;;;;;;0.27;100.00;97565.78;10472208;28;20125;-63
2021/11/30 02:14:57;;;;;;;7.72;5.60;;;;;;;0.33;100.00;97569.78;10475359;28;20047;-63
2021/11/30 02:20:02;;;;;;;9.55;5.60;;;;;;;0.31;100.00;97553.16;10486109;28;20041;-60
2021/11/30 02:25:07;;;;;;;8.52;6.15;;;;;;;0.29;100.00;97547.94;10478130;28;20036;-59
2021/11/30 02:30:10;;;;;;;8.90;6.00;;;;;;;0.27;100.00;97539.31;10474526;28;20123;-61
2021/11/30 02:35:15;;;;;;;8.55;6.22;;;;;;;0.27;100.00;97531.34;10481850;28;20517;-60
2021/11/30 02:40:18;;;;;;;7.60;5.93;;;;;;;0.24;100.00;97521.00;10474275;28;20045;-60
2021/11/30 02:45:21;;;;;;;8.20;6.10;;;;;;;0.23;100.00;97519.31;10482122;28;20718;-63
2021/11/30 02:50:27;;;;;;;8.70;6.10;;;;;;;0.23;100.00;97523.75;10489954;28;20523;-60
2021/11/30 02:55:30;;;;;;;8.10;5.85;;;;;;;0.23;100.00;97505.22;10490011;28;20067;-64
2021/11/30 03:00:33;;;;;;;7.93;6.15;;;;;;;0.24;100.00;97499.78;10479900;28;20074;-61
2021/11/30 03:05:38;;;;;;;10.52;7.15;;;;;;;0.27;100.00;97483.66;10460581;28;20049;-54
2021/11/30 03:10:41;;;;;;;11.77;7.63;;;;;;;0.31;100.00;97486.91;10449449;28;20053;-62
2021/11/30 03:15:44;;;;;;;9.98;7.65;;;;;;;0.35;100.00;97482.22;10460589;28;20537;-61
2021/11/30 03:20:48;;;;;;;11.27;7.50;;;;;;;0.37;100.00;97470.53;10463796;28;20048;-61
2021/11/30 03:25:51;;;;;;;12.55;7.97;;;;;;;0.37;100.00;97467.03;10458137;28;20052;-61
2021/11/30 03:31:00;;;;;;;11.75;8.40;;;;;;;0.41;100.00;97458.72;10464764;28;20048;-68
2021/11/30 03:36:05;;;;;;;15.75;9.15;;;;;;;0.39;100.00;97470.44;10460141;28;20406;-57
2021/11/30 03:41:09;;;;;;;14.45;10.25;;;;;;;0.35;100.00;97445.97;10465281;28;20079;-58
2021/11/30 03:46:13;;;;;;;14.63;10.05;;;;;;;0.31;100.00;97444.53;10475136;28;20083;-66
2021/11/30 03:51:18;;;;;;;18.20;11.40;;;;;;;0.24;100.00;97440.66;10464934;28;20139;-57
2021/11/30 03:56:21;;;;;;;14.05;9.98;;;;;;;0.27;100.00;97443.06;10473089;28;20041;-59
2021/11/30 04:01:24;;;;;;;15.38;10.05;;;;;;;0.28;100.00;97420.91;10467782;28;20090;-60
2021/11/30 04:06:31;;;;;;;13.68;9.15;;;;;;;0.33;100.00;97425.84;10471860;28;20041;-54
2021/11/30 04:11:35;;;;;;;13.80;9.43;;;;;;;0.37;100.00;97414.06;10476877;28;20072;-61
2021/11/30 04:16:38;;;;;;;12.60;9.40;;;;;;;0.40;100.00;97397.94;10475598;28;20040;-61
2021/11/30 04:21:44;;;;;;;14.32;10.05;;;;;;;0.41;100.00;97368.66;10484387;28;20048;-60
2021/11/30 04:26:47;;;;;;;15.43;10.60;;;;;;;0.44;100.00;97378.16;10488230;28;20501;-61
2021/11/30 04:31:50;;;;;;;17.02;11.10;;;;;;;0.43;100.00;97352.63;10521087;28;20047;-60
2021/11/30 04:36:55;;;;;;;16.92;11.15;;;;;;;0.44;100.00;97341.06;10531501;28;20051;-59
2021/11/30 04:41:58;;;;;;;15.48;10.77;;;;;;;0.45;100.00;97348.03;10530473;28;20044;-58
2021/11/30 04:47:05;;;;;;;15.80;10.40;;;;;;;0.45;100.00;97329.50;10534514;28;20047;-61
2021/11/30 04:52:13;;;;;;;13.95;9.60;;;;;;;0.47;100.00;97319.63;10532821;28;20060;-57
2021/11/30 04:57:16;;;;;;;11.38;7.60;;;;;;;0.53;100.00;97300.53;10535452;28;20100;-59
2021/11/30 05:02:20;;;;;;;10.07;6.72;;;;;;;0.61;100.00;97284.88;10535972;28;20139;-60
2021/11/30 05:07:24;;;;;;;8.43;6.00;;;;;;;0.71;100.00;97271.69;10540324;28;20518;-60
2021/11/30 05:12:28;;;;;;;6.80;4.53;;;;;;;0.84;100.00;97268.00;10536077;28;20062;-61
2021/11/30 05:17:31;;;;;;;6.82;4.80;;;;;;;0.87;100.00;97263.31;10537482;28;20523;-61
2021/11/30 05:22:35;;;;;;;8.85;4.95;;;;;;;0.89;100.00;97261.34;10537353;28;20119;-62
2021/11/30 05:27:55;;;;;;;9.30;4.75;;;;;;;0.94;100.00;97246.88;10573992;28;20046;-63
2021/11/30 05:32:58;;;;;;;5.75;3.95;;;;;;;1.00;100.00;97251.66;10595843;28;20524;-63
2021/11/30 05:38:03;;;;;;;7.70;3.70;;;;;;;1.05;100.00;97257.41;10558745;28;20531;-60
2021/11/30 05:43:06;;;;;;;5.13;3.70;;;;;;;1.09;100.00;97256.19;10531898;28;20868;-63
2021/11/30 05:48:10;;;;;;;3.97;3.08;;;;;;;1.13;100.00;97252.28;10529100;28;20055;-62
2021/11/30 05:53:14;;;;;;;4.07;2.97;;;;;;;1.17;100.00;97232.50;10531372;28;20123;-63
2021/11/30 05:58:17;;;;;;;5.57;3.00;;;;;;;1.12;100.00;97225.91;10531549;28;20040;-63
2021/11/30 06:03:28;;;;;;;5.63;3.13;;;;;;;1.00;100.00;97225.16;10530579;28;20155;-62
2021/11/30 06:08:34;;;;;;;5.47;3.53;;;;;;;0.86;100.00;97219.22;10529584;28;20158;-61
2021/11/30 06:13:37;;;;;;;6.28;4.05;;;;;;;0.75;100.00;97206.03;10521574;28;20056;-61
2021/11/30 06:18:40;;;;;;;5.40;3.80;;;;;;;0.69;100.00;97182.66;10527929;28;20055;-61
2021/11/30 06:23:45;;;;;;;4.78;3.40;;;;;;;0.64;100.00;97158.38;10529908;28;20040;-58
2021/11/30 06:28:49;;;;;;;5.95;2.88;;;;;;;0.63;100.00;97162.00;10530717;28;20040;-60
2021/11/30 06:33:53;;;;;;;5.60;3.40;;;;;;;0.59;100.00;97125.16;10528728;28;20386;-56
2021/11/30 06:38:58;;;;;;;5.32;3.67;;;;;;;0.56;100.00;97120.09;10533801;28;20150;-60
2021/11/30 06:44:02;;;;;;;5.45;3.88;;;;;;;0.53;100.00;97115.03;10525639;28;20140;-63
2021/11/30 06:49:05;;;;;;;3.83;3.30;;;;;;;0.52;100.00;97088.69;10526352;28;20036;-63
2021/11/30 06:54:09;;;;;;;5.80;2.78;;;;;;;0.48;100.00;97111.97;10523945;28;20127;-63
2021/11/30 06:59:12;;;;;;;3.75;2.53;;;;;;;0.44;100.00;97081.38;10528996;28;20119;-63
2021/11/30 07:04:15;;;;;;;3.95;2.40;;;;;;;0.42;100.00;97078.88;10529026;28;20083;-62
2021/11/30 07:09:21;;;;;;;2.80;1.77;;;;;;;0.45;100.00;97057.44;10530309;28;20044;-60
2021/11/30 07:14:26;;;;;;;3.95;1.50;;;;;;;0.45;100.00;97056.56;10528927;28;20460;-65
2021/11/30 07:19:31;;;;;;;3.10;1.50;;;;;;;0.50;100.00;97054.38;10523923;28;20175;-61
2021/11/30 07:24:35;;;;;;;3.35;1.15;;;;;;;0.56;100.00;97043.25;10528409;28;20042;-63
2021/11/30 07:29:38;;;;;;;1.90;1.20;;;;;;;0.61;100.00;97048.16;10527598;28;20050;-60
2021/11/30 07:34:41;;;;;;;1.00;0.90;;;;;;;0.69;100.00;97034.22;10528525;28;20105;-57
2021/11/30 07:39:46;;;;;;;1.80;0.80;;;;;;;0.78;100.00;97022.81;10528867;28;20130;-61
2021/11/30 07:44:49;;;;;;;1.92;0.80;;;;;;;0.97;100.00;97018.56;10535719;28;20040;-61
2021/11/30 07:49:52;;;;;;;0.77;0.60;;;;;;;1.09;100.00;97012.19;10528435;28;20115;-62
2021/11/30 07:55:03;;;;;;;0.70;0.52;;;;;;;1.17;100.00;96988.44;10531044;28;20111;-60
2021/11/30 08:00:09;;;;;;;0.98;0.40;;;;;;;1.25;100.00;96997.53;10533275;28;20135;-58
2021/11/30 08:05:15;;;;;;;0.50;0.50;;;;;;;1.37;100.00;96993.75;10535352;28;20552;-59
2021/11/30 08:10:22;;;;;;;0.50;0.50;;;;;;;1.46;100.00;96984.13;10533190;28;20666;-61
2021/11/30 08:15:26;;;;;;;0.40;0.30;;;;;;;1.48;100.00;96963.63;10532395;28;20040;-61
2021/11/30 08:20:36;;;;;;;0.67;0.50;;;;;;;1.52;100.00;96957.88;10535752;28;20071;-60
2021/11/30 08:25:41;;;;;;;0.65;0.32;;;;;;;1.57;100.00;96951.31;10534230;28;20485;-64
2021/11/30 08:30:45;;;;;;;0.75;0.40;;;;;;;1.63;100.00;96950.75;10537789;28;20039;-63
2021/11/30 08:35:49;;;;;;;0.45;0.45;;;;;;;1.65;100.00;96939.00;10533272;28;20043;-62
2021/11/30 08:40:55;;;;;;;0.50;0.50;;;;;;;1.73;100.00;96940.94;10534455;28;20484;-63
2021/11/30 08:45:58;;;;;;;0.40;0.40;;;;;;;1.78;100.00;96940.50;10534274;28;20102;-66
2021/11/30 08:51:01;;;;;;;0.95;0.40;;;;;;;1.78;100.00;96945.81;10531671;28;20154;-66
2021/11/30 08:56:07;;;;;;;0.40;0.40;;;;;;;1.92;100.00;96949.88;10534088;28;20111;-63
2021/11/30 09:01:12;;;;;;;2.05;0.50;;;;;;;1.91;100.00;96943.72;10531927;28;20052;-64
2021/11/30 09:06:15;;;;;;;0.40;0.40;;;;;;;1.99;100.00;96940.34;10526562;28;20419;-63
2021/11/30 09:11:20;;;;;;;1.52;0.63;;;;;;;1.95;100.00;96934.47;10535590;28;20140;-63
2021/11/30 09:16:25;;;;;;;0.57;0.30;;;;;;;1.93;100.00;96946.25;10531814;28;20138;-61
2021/11/30 09:21:28;;;;;;;0.35;0.35;;;;;;;1.91;100.00;96932.25;10532728;28;20123;-61
2021/11/30 09:26:33;;;;;;;0.28;0.28;;;;;;;1.93;100.00;96930.31;10531462;28;20115;-63
2021/11/30 09:31:36;;;;;;;0.20;0.20;;;;;;;1.95;100.00;96925.66;10536011;28;20119;-64
2021/11/30 09:36:43;;;;;;;0.30;0.30;;;;;;;1.98;100.00;96925.38;10528982;28;20091;-65
2021/11/30 09:41:47;;;;;;;1.30;0.35;;;;;;;2.03;100.00;96915.19;10528764;28;20089;-61
2021/11/30 09:46:51;;;;;;;0.85;0.30;;;;;;;2.14;100.00;96907.03;10528856;28;20138;-61
2021/11/30 09:51:55;;;;;;;0.30;0.30;;;;;;;2.17;100.00;96889.94;10530959;28;20044;-64
2021/11/30 09:56:59;;;;;;;0.10;0.10;;;;;;;2.28;100.00;96880.97;10534414;28;20577;-57
2021/11/30 10:02:03;;;;;;;0.22;0.22;;;;;;;2.41;100.00;96868.13;10529861;28;20554;-62
2021/11/30 10:07:07;;;;;;;0.20;0.20;;;;;;;2.53;100.00;96862.66;10531065;28;20123;-60
2021/11/30 10:12:12;;;;;;;0.20;0.20;;;;;;;2.66;100.00;96851.63;10528958;28;20102;-60
2021/11/30 10:17:22;;;;;;;1.05;0.30;;;;;;;2.69;100.00;96846.84;10529562;28;20036;-61
2021/11/30 10:22:41;;;;;;;0.20;0.20;;;;;;;2.67;100.00;96838.19;10529748;28;21257;-61
2021/11/30 10:27:49;;;;;;;0.20;0.20;;;;;;;2.69;100.00;96824.75;10534128;28;20060;-65
2021/11/30 10:32:55;;;;;;;0.47;0.30;;;;;;;2.73;100.00;96832.28;10528705;28;20072;-66
2021/11/30 10:38:00;;;;;;;0.30;0.30;;;;;;;2.78;100.00;96808.72;10531254;28;20036;-64
2021/11/30 10:43:07;;;;;;;0.30;0.30;;;;;;;2.77;100.00;96809.69;10529285;28;20134;-64
2021/11/30 10:48:14;;;;;;;0.60;0.30;;;;;;;2.78;100.00;96800.72;10528943;28;20101;-64
2021/11/30 10:53:20;;;;;;;0.30;0.30;;;;;;;2.76;100.00;96802.72;10524717;28;20139;-64
2021/11/30 10:58:27;;;;;;;2.05;0.20;;;;;;;2.82;100.00;96808.41;10528345;28;20495;-64
2021/11/30 11:03:31;;;;;;;0.22;0.22;;;;;;;2.80;100.00;96794.44;10527870;28;20048;-63
2021/11/30 11:08:41;;;;;;;0.55;0.30;;;;;;;2.78;100.00;96781.31;10529861;28;20151;-62
2021/11/30 11:13:47;;;;;;;0.30;0.30;;;;;;;2.71;100.00;96796.16;10529416;28;20127;-64
2021/11/30 11:18:51;;;;;;;0.52;0.20;;;;;;;2.68;100.00;96794.66;10528295;28;20072;-64
2021/11/30 11:24:05;;;;;;;0.98;0.38;;;;;;;2.63;100.00;96799.63;10526671;28;20401;-64
2021/11/30 11:29:12;;;;;;;2.25;0.50;;;;;;;2.52;100.00;96786.53;10530909;28;20127;-63
2021/11/30 11:34:17;;;;;;;0.75;0.32;;;;;;;2.45;100.00;96781.81;10538795;28;20115;-58
2021/11/30 11:39:22;;;;;;;0.85;0.30;;;;;;;2.36;100.00;96803.97;10536335;28;20480;-60
2021/11/30 11:44:26;;;;;;;0.35;0.30;;;;;;;2.39;100.00;96802.84;10535916;28;20072;-63
2021/11/30 11:49:37;;;;;;;1.40;0.43;;;;;;;2.37;100.00;96805.66;10541323;28;20043;-59
2021/11/30 11:54:40;;;;;;;0.30;0.30;;;;;;;2.35;100.00;96814.78;10533922;28;20119;-59
2021/11/30 11:59:47;;;;;;;0.63;0.50;;;;;;;2.30;100.00;96804.56;10536640;28;20083;-56
2021/11/30 12:04:54;;;;;;;0.93;0.40;;;;;;;2.33;100.00;96796.31;10529330;28;20058;-59
2021/11/30 12:10:16;;;;;;;1.23;0.40;;;;;;;2.31;100.00;96792.94;10535663;28;20056;-59
2021/11/30 12:15:20;;;;;;;0.40;0.40;;;;;;;2.28;100.00;96787.97;10529753;28;20129;-61
2021/11/30 12:20:23;;;;;;;0.45;0.45;;;;;;;2.29;100.00;96781.66;10534904;28;20064;-62
2021/11/30 12:25:43;;;;;;;0.40;0.30;;;;;;;2.42;100.00;96779.44;10535275;28;20452;-62
2021/11/30 12:30:52;;;;;;;0.30;0.30;;;;;;;2.50;100.00;96778.69;10533511;28;20055;-61
2021/11/30 12:35:58;;;;;;;2.47;0.47;;;;;;;2.50;100.00;96776.03;10531959;28;20121;-62
2021/11/30 12:41:28;;;;;;;0.40;0.40;;;;;;;2.51;100.00;96777.72;10533987;28;20040;-61
2021/11/30 12:46:34;;;;;;;0.40;0.40;;;;;;;2.64;100.00;96774.69;10537412;27;20747;-59
2021/11/30 12:51:37;;;;;;;0.52;0.40;;;;;;;2.65;100.00;96770.22;10536443;28;20070;-62
2021/11/30 12:56:49;;;;;;;0.95;0.47;;;;;;;2.72;100.00;96763.28;10537818;28;20043;-62
2021/11/30 13:02:16;;;;;;;0.40;0.40;;;;;;;2.84;100.00;96766.56;10533361;28;20071;-62
2021/11/30 13:07:21;;;;;;;0.73;0.30;;;;;;;2.94;100.00;96759.31;10536090;28;20073;-61
2021/11/30 13:12:28;;;;;;;0.40;0.40;;;;;;;3.00;100.00;96758.69;10543468;27;20480;-62
2021/11/30 13:17:35;;;;;;;1.35;0.40;;;;;;;3.04;100.00;96762.72;10535726;28;20441;-59
2021/11/30 13:22:39;;;;;;;0.35;0.35;;;;;;;3.13;100.00;96746.81;10551451;28;20066;-61
2021/11/30 13:28:07;;;;;;;1.85;0.30;;;;;;;3.17;100.00;96750.84;10571843;28;20040;-63
2021/11/30 13:33:12;;;;;;;1.95;0.43;;;;;;;3.27;100.00;96761.38;10569355;28;20064;-62
2021/11/30 13:38:18;;;;;;;0.40;0.40;;;;;;;3.28;100.00;96761.22;10535529;28;20047;-61
2021/11/30 13:43:27;;;;;;;0.95;0.55;;;;;;;3.33;100.00;96748.28;10528412;28;20054;-61
2021/11/30 13:48:32;;;;;;;0.40;0.40;;;;;;;3.35;100.00;96764.91;10529359;28;20044;-61
2021/11/30 13:53:37;;;;;;;1.65;0.40;;;;;;;3.43;100.00;96768.63;10533282;28;20047;-62
2021/11/30 13:59:11;;;;;;;0.40;0.40;;;;;;;3.44;100.00;96776.44;10531774;28;20044;-63
2021/11/30 14:04:51;;;;;;;0.30;0.30;;;;;;;3.50;100.00;96773.19;10528870;28;20436;-63
2021/11/30 14:09:58;;;;;;;0.73;0.40;;;;;;;3.50;100.00;96769.66;10529092;28;20551;-61
2021/11/30 14:15:08;;;;;;;0.75;0.50;;;;;;;3.57;100.00;96768.06;10522551;28;20056;-62
2021/11/30 14:20:22;;;;;;;0.40;0.40;;;;;;;3.69;100.00;96780.13;10522552;28;20305;-58
2021/11/30 14:25:27;;;;;;;1.55;0.47;;;;;;;3.84;100.00;96771.50;10526795;28;20435;-62
2021/11/30 14:30:38;;;;;;;0.40;0.40;;;;;;;4.10;100.00;96786.59;10529357;28;20150;-61
2021/11/30 14:35:43;;;;;;;0.80;0.50;;;;;;;4.20;100.00;96771.31;10530196;28;20454;-61
2021/11/30 14:40:51;;;;;;;0.50;0.50;;;;;;;4.26;100.00;96768.00;10527716;28;20455;-60
2021/11/30 14:45:55;;;;;;;0.95;0.60;;;;;;;4.31;100.00;96772.84;10527189;28;20040;-63
2021/11/30 14:51:01;;;;;;;2.47;0.52;;;;;;;4.38;100.00;96778.38;10526577;28;20097;-62
2021/11/30 14:56:08;;;;;;;1.30;0.68;;;;;;;4.41;100.00;96802.06;10524989;28;20044;-64
2021/11/30 15:01:15;;;;;;;0.68;0.68;;;;;;;4.40;100.00;96813.72;10526374;28;20056;-62
2021/11/30 15:06:20;;;;;;;0.70;0.70;;;;;;;4.47;100.00;96812.88;10528860;28;20050;-63
2021/11/30 15:11:32;;;;;;;0.57;0.57;;;;;;;4.54;100.00;96826.38;10527868;28;20131;-63
2021/11/30 15:16:43;;;;;;;0.70;0.70;;;;;;;4.76;100.00;96819.63;10527686;28;20413;-63
2021/11/30 15:21:50;;;;;;;1.70;0.87;;;;;;;4.84;100.00;96831.28;10524518;28;20471;-62
2021/11/30 15:26:55;;;;;;;1.20;0.95;;;;;;;4.78;100.00;96849.63;10524339;28;20466;-63
2021/11/30 15:32:02;;;;;;;0.70;0.70;;;;;;;4.78;100.00;96860.31;10525420;28;20485;-62
2021/11/30 15:37:06;;;;;;;1.05;0.77;;;;;;;4.77;100.00;96873.78;10521745;28;20040;-63
2021/11/30 15:42:15;;;;;;;1.13;0.82;;;;;;;4.74;100.00;96874.97;10526428;28;20128;-63
2021/11/30 15:47:21;;;;;;;0.80;0.80;;;;;;;4.72;100.00;96881.47;10524795;28;20183;-62
2021/11/30 15:52:28;;;;;;;1.10;0.90;;;;;;;4.78;100.00;96894.13;10525216;28;20036;-62
2021/11/30 15:57:36;;;;;;;1.20;0.90;;;;;;;4.79;100.00;96893.16;10528415;28;20135;-64
2021/11/30 16:02:43;;;;;;;1.45;1.20;;;;;;;4.74;100.00;96890.97;10524746;28;20693;-62
2021/11/30 16:07:46;;;;;;;1.67;1.48;;;;;;;4.81;100.00;96891.16;10525842;28;20710;-61
2021/11/30 16:12:50;;;;;;;2.17;1.15;;;;;;;4.81;100.00;96915.16;10525911;28;20059;-61
2021/11/30 16:18:20;;;;;;;2.17;1.50;;;;;;;4.84;100.00;96940.69;10534048;28;20489;-61
2021/11/30 16:23:24;;;;;;;4.18;1.60;;;;;;;4.89;100.00;96912.50;10531215;28;20039;-62
2021/11/30 16:28:27;;;;;;;2.33;1.55;;;;;;;4.90;100.00;96924.84;10533714;28;20100;-62
2021/11/30 16:33:32;;;;;;;2.53;1.35;;;;;;;4.96;100.00;96942.06;10531782;28;20032;-62
2021/11/30 16:38:36;;;;;;;1.45;1.30;;;;;;;5.03;100.00;96927.09;10530437;28;20047;-62
2021/11/30 16:43:40;;;;;;;2.33;1.52;;;;;;;4.99;100.00;96940.91;10532244;28;20043;-62
2021/11/30 16:48:50;;;;;;;4.55;1.50;;;;;;;5.02;100.00;96940.56;10530500;28;20086;-62
2021/11/30 16:53:54;;;;;;;1.65;1.50;;;;;;;5.12;100.00;96930.56;10529938;28;20504;-61
2021/11/30 16:58:57;;;;;;;2.13;1.30;;;;;;;5.12;100.00;96956.44;10532469;28;20052;-62
2021/11/30 17:04:02;;;;;;;1.60;1.00;;;;;;;5.20;100.00;96941.28;10530966;28;20043;-61
2021/11/30 17:09:06;;;;;;;1.73;1.33;;;;;;;5.15;100.00;96940.94;10537569;28;20135;-59
2021/11/30 17:14:10;;;;;;;1.05;0.95;;;;;;;5.18;100.00;96961.97;10532957;28;20079;-60
2021/11/30 17:19:16;;;;;;;2.00;1.20;;;;;;;5.18;100.00;96974.47;10529809;28;20124;-60
2021/11/30 17:24:19;;;;;;;2.13;1.00;;;;;;;5.28;100.00;96975.19;10535651;28;20541;-61
2021/11/30 17:29:29;;;;;;;1.67;1.20;;;;;;;5.20;100.00;96984.00;10529379;28;20040;-63
2021/11/30 17:34:34;;;;;;;2.25;1.10;;;;;;;5.24;100.00;97004.03;10530393;28;20059;-64
2021/11/30 17:39:37;;;;;;;2.55;1.27;;;;;;;5.19;100.00;97009.03;10526538;28;20059;-59
2021/11/30 17:44:40;;;;;;;1.92;1.02;;;;;;;5.11;100.00;97009.03;10529959;28;20077;-61
2021/11/30 17:49:45;;;;;;;3.45;1.40;;;;;;;5.06;100.00;97022.00;10528463;28;20048;-60
2021/11/30 17:54:48;;;;;;;2.13;1.52;;;;;;;5.03;100.00;97024.97;10524580;28;20799;-58
2021/11/30 17:59:51;;;;;;;1.25;1.15;;;;;;;4.97;100.00;97045.16;10488824;28;20488;-57
2021/11/30 18:04:56;;;;;;;4.53;1.67;;;;;;;4.95;100.00;97063.13;10490533;28;20049;-59
2021/11/30 18:10:00;;;;;;;3.80;1.65;;;;;;;4.91;100.00;97049.28;10490668;28;20087;-65
2021/11/30 18:15:04;;;;;;;3.50;1.90;;;;;;;4.86;100.00;97078.28;10492540;28;20056;-60
2021/11/30 18:20:09;;;;;;;2.45;1.30;;;;;;;4.76;100.00;97080.25;10492976;28;20043;-62
2021/11/30 18:25:13;;;;;;;1.95;1.33;;;;;;;4.74;100.00;97103.56;10488150;28;20062;-60
2021/11/30 18:30:16;;;;;;;4.35;1.30;;;;;;;4.70;100.00;97099.53;10489933;28;20808;-63
2021/11/30 18:35:22;;;;;;;3.75;1.40;;;;;;;4.65;100.00;97116.00;10490616;28;20088;-61
2021/11/30 18:40:25;;;;;;;5.00;1.30;;;;;;;4.57;100.00;97145.31;10490096;28;20856;-61
2021/11/30 18:45:29;;;;;;;5.45;1.48;;;;;;;4.50;100.00;97150.41;10489069;28;20418;-62
2021/11/30 18:50:34;;;;;;;6.15;1.40;;;;;;;4.44;100.00;97137.69;10489467;28;20036;-64
2021/11/30 18:55:38;;;;;;;5.85;1.30;;;;;;;4.37;100.00;97141.97;10485637;28;20040;-61
2021/11/30 19:00:42;;;;;;;3.60;1.10;;;;;;;4.32;100.00;97142.44;10488047;28;20072;-64
2021/11/30 19:05:49;;;;;;;3.75;1.15;;;;;;;4.27;100.00;97150.03;10484578;28;20053;-58
2021/11/30 19:10:56;;;;;;;6.07;1.20;;;;;;;4.25;100.00;97170.66;10491385;28;20045;-63
2021/11/30 19:16:00;;;;;;;3.60;1.13;;;;;;;4.18;100.00;97173.09;10487718;28;20040;-66
2021/11/30 19:21:05;;;;;;;4.78;1.05;;;;;;;4.16;100.00;97191.94;10489128;28;20037;-63
2021/11/30 19:26:08;;;;;;;4.38;1.10;;;;;;;4.11;100.00;97198.69;10491738;28;20048;-62
2021/11/30 19:31:11;;;;;;;7.28;1.13;;;;;;;4.06;100.00;97222.31;10483474;28;20052;-61
2021/11/30 19:36:15;;;;;;;9.85;1.58;;;;;;;3.99;100.00;97220.22;10488023;28;20044;-63
2021/11/30 19:41:18;;;;;;;8.30;1.27;;;;;;;3.95;100.00;97236.66;10483374;28;20048;-59
2021/11/30 19:46:22;;;;;;;9.45;1.48;;;;;;;3.92;100.00;97232.47;10487168;28;20050;-61
2021/11/30 19:51:27;;;;;;;4.95;1.10;;;;;;;3.88;100.00;97230.28;10492242;28;20068;-61
2021/11/30 19:56:32;;;;;;;8.52;1.52;;;;;;;3.85;100.00;97236.72;10498712;28;20115;-64
2021/11/30 20:07:49;;;;;;;11.03;1.63;;;;;;;3.79;100.00;97255.97;10491532;28;20043;-64
2021/11/30 20:12:52;;;;;;;12.90;1.75;;;;;;;3.78;100.00;97243.63;10494320;28;20108;-64
2021/11/30 20:17:57;;;;;;;16.00;1.58;;;;;;;3.76;100.00;97265.09;10493957;28;20048;-64
2021/11/30 20:23:03;;;;;;;10.27;1.50;;;;;;;3.76;100.00;97256.25;10491735;28;20491;-61
2021/11/30 20:28:06;;;;;;;12.52;1.50;;;;;;;3.75;100.00;97251.91;10495291;28;20068;-63
2021/11/30 20:33:11;;;;;;;16.73;1.75;;;;;;;3.72;100.00;97268.19;10493196;28;20608;-60
2021/11/30 20:43:41;;;;;;;14.27;1.63;;;;;;;3.70;100.00;97261.16;10493382;28;20048;-60
2021/11/30 20:48:44;;;;;;;14.45;1.77;;;;;;;3.70;100.00;97265.66;10493235;28;20094;-61
2021/11/30 20:53:48;;;;;;;14.68;1.45;;;;;;;3.72;100.00;97279.69;10493030;28;20071;-56
2021/11/30 20:58:51;;;;;;;12.63;1.70;;;;;;;3.74;100.00;97282.19;10497197;28;20036;-66
2021/11/30 21:03:57;;;;;;;14.95;1.80;;;;;;;3.77;100.00;97281.91;10496268;28;20056;-64
2021/11/30 21:09:02;;;;;;;8.65;1.48;;;;;;;3.75;100.00;97278.53;10533662;28;20047;-61
2021/11/30 21:14:06;;;;;;;16.55;1.95;;;;;;;3.72;100.00;97274.34;10526370;28;20060;-64
2021/11/30 21:19:09;;;;;;;14.65;1.67;;;;;;;3.73;100.00;97286.69;10492999;28;20128;-64
2021/11/30 21:24:15;;;;;;;9.80;1.70;;;;;;;3.79;100.00;97295.91;10490931;28;20116;-66
2021/11/30 21:29:18;;;;;;;10.25;1.60;;;;;;;3.75;100.00;97299.84;10487269;28;20068;-61
2021/11/30 21:34:21;;;;;;;8.55;1.98;;;;;;;3.78;100.00;97299.56;10484370;28;20128;-64
2021/11/30 21:39:26;;;;;;;14.23;2.53;;;;;;;3.82;100.00;97306.28;10488119;28;20039;-64
2021/11/30 21:44:30;;;;;;;13.10;1.90;;;;;;;3.81;100.00;97304.63;10489478;28;20054;-65
2021/11/30 21:49:34;;;;;;;13.00;2.33;;;;;;;3.87;100.00;97309.34;10488559;28;20919;-64
2021/11/30 21:54:38;;;;;;;12.20;2.20;;;;;;;3.90;100.00;97317.06;10487996;28;20515;-63
2021/11/30 21:59:43;;;;;;;11.20;2.30;;;;;;;3.90;100.00;97308.19;10489565;28;20045;-64
2021/11/30 22:04:46;;;;;;;11.10;2.13;;;;;;;3.91;100.00;97317.88;10489737;28;20075;-62
2021/11/30 22:09:50;;;;;;;9.10;2.25;;;;;;;3.92;100.00;97317.75;10488924;28;20041;-62
2021/11/30 22:14:54;;;;;;;9.95;2.30;;;;;;;3.95;100.00;97319.28;10485521;28;20048;-65
2021/11/30 22:19:57;;;;;;;10.85;2.65;;;;;;;3.93;100.00;97319.44;10488900;28;20040;-62
2021/11/30 22:25:05;;;;;;;7.65;2.95;;;;;;;3.95;100.00;97320.09;10485125;28;20114;-63
2021/11/30 22:30:09;;;;;;;13.57;3.20;;;;;;;3.96;100.00;97312.97;10486836;28;20631;-61
2021/11/30 22:35:12;;;;;;;8.85;2.90;;;;;;;3.96;100.00;97324.44;10488541;28;20111;-62
2021/11/30 22:40:18;;;;;;;10.13;3.10;;;;;;;3.98;100.00;97325.16;10489208;28;20044;-61
2021/11/30 22:45:22;;;;;;;7.53;2.80;;;;;;;4.01;100.00;97324.84;10486403;28;20055;-64
2021/11/30 22:50:26;;;;;;;5.93;2.55;;;;;;;4.08;100.00;97326.91;10484871;28;20058;-61
2021/11/30 22:55:31;;;;;;;6.78;2.20;;;;;;;4.14;100.00;97326.34;10488479;28;20155;-62
2021/11/30 23:00:38;;;;;;;8.63;1.80;;;;;;;4.19;100.00;97324.06;10487327;28;20116;-60
2021/11/30 23:05:42;;;;;;;7.10;1.95;;;;;;;4.21;100.00;97316.75;10487171;28;20055;-59
2021/11/30 23:10:47;;;;;;;7.07;2.00;;;;;;;4.19;100.00;97309.91;10487480;28;20083;-57
2021/11/30 23:15:50;;;;;;;11.07;2.35;;;;;;;4.19;100.00;97313.41;10483145;28;20045;-63
2021/11/30 23:20:55;;;;;;;7.80;2.45;;;;;;;4.16;100.00;97292.38;10486525;28;20037;-61
2021/11/30 23:26:09;;;;;;;9.18;2.50;;;;;;;4.15;100.00;97298.72;10489157;28;20120;-55
2021/11/30 23:31:16;;;;;;;9.43;2.63;;;;;;;4.14;100.00;97291.69;10486983;28;20124;-60
2021/11/30 23:36:20;;;;;;;10.05;2.67;;;;;;;4.14;100.00;97287.19;10482027;28;20044;-60
2021/11/30 23:41:28;;;;;;;4.78;2.78;;;;;;;4.12;100.00;97278.50;10489717;28;20143;-64
2021/11/30 23:46:31;;;;;;;7.30;2.80;;;;;;;4.15;100.00;97272.88;10488365;28;20116;-62
2021/11/30 23:51:34;;;;;;;31.20;4.50;;;;;;;4.15;100.00;97270.22;10482520;28;20048;-65